sensor_id;sensor_type;location;lat;lon;timestamp;P1;durP1;ratioP1;P2;durP2;ratioP2
46006;SDS011;31738;50.188;8.524;2022-09-16T00:00:21;6.45;;;1.50;;
46006;SDS011;31738;50.188;8.524;2022-09-16T00:02:46;4.72;;;1.48;;
46006;SDS011;31738;50.188;8.524;2022-09-16T00:05:12;5.90;;;1.50;;
46006;SDS011;31738;50.188;8.524;2022-09-16T00:07:38;5.32;;;1.50;;
46006;SDS011;31738;50.188;8.524;2022-09-16T00:10:04;9.75;;;1.45;;
46006;SDS011;31738;50.188;8.524;2022-09-16T00:12:30;5.13;;;1.98;;
46006;SDS011;31738;50.188;8.524;2022-09-16T00:14:56;4.97;;;1.38;;
46006;SDS011;31738;50.188;8.524;2022-09-16T00:17:21;5.05;;;1.40;;
46006;SDS011;31738;50.188;8.524;2022-09-16T00:19:47;6.30;;;1.65;;
46006;SDS011;31738;50.188;8.524;2022-09-16T00:22:14;5.38;;;1.65;;
46006;SDS011;31738;50.188;8.524;2022-09-16T00:24:40;1.83;;;1.05;;
46006;SDS011;31738;50.188;8.524;2022-09-16T00:27:05;7.85;;;1.40;;
46006;SDS011;31738;50.188;8.524;2022-09-16T00:29:31;6.43;;;1.45;;
46006;SDS011;31738;50.188;8.524;2022-09-16T00:31:56;6.28;;;1.33;;
46006;SDS011;31738;50.188;8.524;2022-09-16T00:34:22;5.30;;;1.75;;
46006;SDS011;31738;50.188;8.524;2022-09-16T00:36:47;3.92;;;1.20;;
46006;SDS011;31738;50.188;8.524;2022-09-16T00:39:13;5.10;;;1.40;;
46006;SDS011;31738;50.188;8.524;2022-09-16T00:41:38;4.63;;;1.48;;
46006;SDS011;31738;50.188;8.524;2022-09-16T00:44:05;5.82;;;1.33;;
46006;SDS011;31738;50.188;8.524;2022-09-16T00:46:50;3.92;;;1.38;;
46006;SDS011;31738;50.188;8.524;2022-09-16T00:49:21;7.60;;;1.30;;
46006;SDS011;31738;50.188;8.524;2022-09-16T00:51:52;6.78;;;1.30;;
46006;SDS011;31738;50.188;8.524;2022-09-16T00:54:26;6.20;;;1.60;;
46006;SDS011;31738;50.188;8.524;2022-09-16T00:56:54;5.53;;;1.45;;
46006;SDS011;31738;50.188;8.524;2022-09-16T00:59:25;5.97;;;1.13;;
46006;SDS011;31738;50.188;8.524;2022-09-16T01:01:53;4.18;;;1.05;;
46006;SDS011;31738;50.188;8.524;2022-09-16T01:04:24;7.45;;;1.70;;
46006;SDS011;31738;50.188;8.524;2022-09-16T01:06:53;4.38;;;1.25;;
46006;SDS011;31738;50.188;8.524;2022-09-16T01:09:20;3.30;;;1.10;;
46006;SDS011;31738;50.188;8.524;2022-09-16T01:11:47;3.65;;;1.33;;
46006;SDS011;31738;50.188;8.524;2022-09-16T01:14:12;3.40;;;1.20;;
46006;SDS011;31738;50.188;8.524;2022-09-16T01:17:22;3.15;;;1.10;;
46006;SDS011;31738;50.188;8.524;2022-09-16T01:20:08;3.22;;;1.20;;
46006;SDS011;31738;50.188;8.524;2022-09-16T01:31:22;9.07;;;1.30;;
46006;SDS011;31738;50.188;8.524;2022-09-16T01:34:12;4.47;;;1.02;;
46006;SDS011;31738;50.188;8.524;2022-09-16T01:37:27;5.10;;;1.55;;
46006;SDS011;31738;50.188;8.524;2022-09-16T01:45:15;5.30;;;1.00;;
46006;SDS011;31738;50.188;8.524;2022-09-16T01:48:04;2.67;;;1.10;;
46006;SDS011;31738;50.188;8.524;2022-09-16T01:53:17;7.30;;;1.20;;
46006;SDS011;31738;50.188;8.524;2022-09-16T01:55:49;6.50;;;1.17;;
46006;SDS011;31738;50.188;8.524;2022-09-16T01:58:21;3.38;;;1.27;;
46006;SDS011;31738;50.188;8.524;2022-09-16T02:03:24;2.47;;;1.00;;
46006;SDS011;31738;50.188;8.524;2022-09-16T02:06:16;2.13;;;0.90;;
46006;SDS011;31738;50.188;8.524;2022-09-16T02:08:59;3.97;;;0.90;;
46006;SDS011;31738;50.188;8.524;2022-09-16T02:11:29;5.38;;;1.05;;
46006;SDS011;31738;50.188;8.524;2022-09-16T02:16:48;4.75;;;1.08;;
46006;SDS011;31738;50.188;8.524;2022-09-16T02:19:24;5.85;;;1.20;;
46006;SDS011;31738;50.188;8.524;2022-09-16T02:21:53;6.88;;;1.65;;
46006;SDS011;31738;50.188;8.524;2022-09-16T02:24:21;6.60;;;1.40;;
46006;SDS011;31738;50.188;8.524;2022-09-16T02:26:57;3.90;;;1.70;;
46006;SDS011;31738;50.188;8.524;2022-09-16T02:29:36;5.50;;;1.60;;
46006;SDS011;31738;50.188;8.524;2022-09-16T02:32:04;9.50;;;2.00;;
46006;SDS011;31738;50.188;8.524;2022-09-16T02:34:33;6.95;;;2.00;;
46006;SDS011;31738;50.188;8.524;2022-09-16T02:37:20;8.27;;;1.90;;
46006;SDS011;31738;50.188;8.524;2022-09-16T02:39:52;5.20;;;1.38;;
46006;SDS011;31738;50.188;8.524;2022-09-16T02:42:22;6.75;;;1.90;;
46006;SDS011;31738;50.188;8.524;2022-09-16T02:44:48;7.28;;;1.65;;
46006;SDS011;31738;50.188;8.524;2022-09-16T02:47:15;4.57;;;1.45;;
46006;SDS011;31738;50.188;8.524;2022-09-16T02:50:09;5.40;;;1.10;;
46006;SDS011;31738;50.188;8.524;2022-09-16T02:52:46;3.60;;;1.13;;
46006;SDS011;31738;50.188;8.524;2022-09-16T02:59:13;7.82;;;1.60;;
46006;SDS011;31738;50.188;8.524;2022-09-16T03:01:41;4.80;;;1.40;;
46006;SDS011;31738;50.188;8.524;2022-09-16T03:04:09;4.30;;;1.25;;
46006;SDS011;31738;50.188;8.524;2022-09-16T03:06:36;2.92;;;1.00;;
46006;SDS011;31738;50.188;8.524;2022-09-16T03:09:04;4.60;;;0.90;;
46006;SDS011;31738;50.188;8.524;2022-09-16T03:17:17;6.00;;;1.17;;
46006;SDS011;31738;50.188;8.524;2022-09-16T03:25:09;4.63;;;1.23;;
46006;SDS011;31738;50.188;8.524;2022-09-16T03:28:23;6.60;;;1.38;;
46006;SDS011;31738;50.188;8.524;2022-09-16T03:30:58;5.35;;;1.40;;
46006;SDS011;31738;50.188;8.524;2022-09-16T03:33:34;5.75;;;1.42;;
46006;SDS011;31738;50.188;8.524;2022-09-16T03:36:06;4.13;;;1.13;;
46006;SDS011;31738;50.188;8.524;2022-09-16T03:38:34;5.35;;;1.38;;
46006;SDS011;31738;50.188;8.524;2022-09-16T03:41:02;9.07;;;1.20;;
46006;SDS011;31738;50.188;8.524;2022-09-16T03:43:30;6.95;;;1.55;;
46006;SDS011;31738;50.188;8.524;2022-09-16T03:45:55;3.45;;;1.40;;
46006;SDS011;31738;50.188;8.524;2022-09-16T03:48:21;3.60;;;1.38;;
46006;SDS011;31738;50.188;8.524;2022-09-16T03:50:46;6.80;;;1.73;;
46006;SDS011;31738;50.188;8.524;2022-09-16T03:53:12;2.78;;;1.27;;
46006;SDS011;31738;50.188;8.524;2022-09-16T03:55:37;5.10;;;1.45;;
46006;SDS011;31738;50.188;8.524;2022-09-16T03:58:03;5.82;;;1.48;;
46006;SDS011;31738;50.188;8.524;2022-09-16T04:00:28;5.32;;;1.27;;
46006;SDS011;31738;50.188;8.524;2022-09-16T04:02:54;4.32;;;1.20;;
46006;SDS011;31738;50.188;8.524;2022-09-16T04:05:20;4.25;;;1.40;;
46006;SDS011;31738;50.188;8.524;2022-09-16T04:07:47;5.22;;;1.13;;
46006;SDS011;31738;50.188;8.524;2022-09-16T04:10:14;2.83;;;0.95;;
46006;SDS011;31738;50.188;8.524;2022-09-16T04:12:39;4.20;;;1.38;;
46006;SDS011;31738;50.188;8.524;2022-09-16T04:15:05;4.32;;;1.17;;
46006;SDS011;31738;50.188;8.524;2022-09-16T04:17:31;7.65;;;1.35;;
46006;SDS011;31738;50.188;8.524;2022-09-16T04:20:00;4.38;;;1.52;;
46006;SDS011;31738;50.188;8.524;2022-09-16T04:22:29;3.83;;;1.42;;
46006;SDS011;31738;50.188;8.524;2022-09-16T04:25:04;6.03;;;1.25;;
46006;SDS011;31738;50.188;8.524;2022-09-16T04:27:30;4.07;;;1.10;;
46006;SDS011;31738;50.188;8.524;2022-09-16T04:29:55;4.97;;;1.45;;
46006;SDS011;31738;50.188;8.524;2022-09-16T04:32:21;5.82;;;1.33;;
46006;SDS011;31738;50.188;8.524;2022-09-16T04:34:47;1.40;;;1.05;;
46006;SDS011;31738;50.188;8.524;2022-09-16T04:37:22;4.20;;;1.20;;
46006;SDS011;31738;50.188;8.524;2022-09-16T04:40:16;4.53;;;1.20;;
46006;SDS011;31738;50.188;8.524;2022-09-16T04:42:51;6.05;;;1.48;;
46006;SDS011;31738;50.188;8.524;2022-09-16T04:45:30;7.03;;;1.70;;
46006;SDS011;31738;50.188;8.524;2022-09-16T04:48:01;4.75;;;1.30;;
46006;SDS011;31738;50.188;8.524;2022-09-16T04:50:41;4.80;;;1.63;;
46006;SDS011;31738;50.188;8.524;2022-09-16T04:53:12;6.82;;;1.38;;
46006;SDS011;31738;50.188;8.524;2022-09-16T04:55:50;6.30;;;1.35;;
46006;SDS011;31738;50.188;8.524;2022-09-16T04:58:21;8.32;;;1.40;;
46006;SDS011;31738;50.188;8.524;2022-09-16T05:01:02;12.38;;;1.45;;
46006;SDS011;31738;50.188;8.524;2022-09-16T05:03:28;4.55;;;1.23;;
46006;SDS011;31738;50.188;8.524;2022-09-16T05:06:06;4.80;;;1.33;;
46006;SDS011;31738;50.188;8.524;2022-09-16T05:08:49;6.47;;;1.67;;
46006;SDS011;31738;50.188;8.524;2022-09-16T05:11:29;3.85;;;1.75;;
46006;SDS011;31738;50.188;8.524;2022-09-16T05:14:07;7.90;;;2.03;;
46006;SDS011;31738;50.188;8.524;2022-09-16T05:16:53;3.55;;;1.88;;
46006;SDS011;31738;50.188;8.524;2022-09-16T05:19:31;10.95;;;2.70;;
46006;SDS011;31738;50.188;8.524;2022-09-16T05:22:02;7.30;;;2.40;;
46006;SDS011;31738;50.188;8.524;2022-09-16T05:24:34;11.40;;;3.45;;
46006;SDS011;31738;50.188;8.524;2022-09-16T05:29:52;6.55;;;2.80;;
46006;SDS011;31738;50.188;8.524;2022-09-16T05:32:33;7.53;;;3.10;;
46006;SDS011;31738;50.188;8.524;2022-09-16T05:35:06;9.75;;;2.50;;
46006;SDS011;31738;50.188;8.524;2022-09-16T05:37:40;6.93;;;2.10;;
46006;SDS011;31738;50.188;8.524;2022-09-16T05:40:15;6.93;;;2.03;;
46006;SDS011;31738;50.188;8.524;2022-09-16T05:42:47;9.27;;;2.60;;
46006;SDS011;31738;50.188;8.524;2022-09-16T05:45:19;5.10;;;2.30;;
46006;SDS011;31738;50.188;8.524;2022-09-16T05:48:01;9.30;;;2.73;;
46006;SDS011;31738;50.188;8.524;2022-09-16T05:50:57;7.60;;;3.03;;
46006;SDS011;31738;50.188;8.524;2022-09-16T05:53:35;6.07;;;2.25;;
46006;SDS011;31738;50.188;8.524;2022-09-16T05:56:04;7.53;;;2.58;;
46006;SDS011;31738;50.188;8.524;2022-09-16T05:58:46;9.90;;;2.53;;
46006;SDS011;31738;50.188;8.524;2022-09-16T06:01:24;5.65;;;3.00;;
46006;SDS011;31738;50.188;8.524;2022-09-16T06:03:52;10.90;;;3.88;;
46006;SDS011;31738;50.188;8.524;2022-09-16T06:06:26;7.32;;;3.08;;
46006;SDS011;31738;50.188;8.524;2022-09-16T06:08:53;11.07;;;3.33;;
46006;SDS011;31738;50.188;8.524;2022-09-16T06:11:23;6.90;;;3.17;;
46006;SDS011;31738;50.188;8.524;2022-09-16T06:13:55;6.90;;;2.77;;
46006;SDS011;31738;50.188;8.524;2022-09-16T06:16:27;4.32;;;2.25;;
46006;SDS011;31738;50.188;8.524;2022-09-16T06:19:05;6.95;;;2.25;;
46006;SDS011;31738;50.188;8.524;2022-09-16T06:21:41;5.40;;;1.90;;
46006;SDS011;31738;50.188;8.524;2022-09-16T06:24:21;6.30;;;1.83;;
46006;SDS011;31738;50.188;8.524;2022-09-16T06:27:04;9.40;;;2.38;;
46006;SDS011;31738;50.188;8.524;2022-09-16T06:29:36;5.85;;;1.98;;
46006;SDS011;31738;50.188;8.524;2022-09-16T06:32:09;8.55;;;2.47;;
46006;SDS011;31738;50.188;8.524;2022-09-16T06:34:53;7.75;;;2.20;;
46006;SDS011;31738;50.188;8.524;2022-09-16T06:37:20;6.50;;;2.20;;
46006;SDS011;31738;50.188;8.524;2022-09-16T06:40:07;5.80;;;1.88;;
46006;SDS011;31738;50.188;8.524;2022-09-16T06:42:41;4.72;;;2.05;;
46006;SDS011;31738;50.188;8.524;2022-09-16T06:45:15;11.30;;;2.30;;
46006;SDS011;31738;50.188;8.524;2022-09-16T06:47:57;6.38;;;2.08;;
46006;SDS011;31738;50.188;8.524;2022-09-16T06:50:30;5.18;;;2.05;;
46006;SDS011;31738;50.188;8.524;2022-09-16T06:52:59;4.75;;;1.75;;
46006;SDS011;31738;50.188;8.524;2022-09-16T06:55:37;5.05;;;1.83;;
46006;SDS011;31738;50.188;8.524;2022-09-16T06:58:02;8.75;;;1.90;;
46006;SDS011;31738;50.188;8.524;2022-09-16T07:00:44;5.68;;;1.80;;
46006;SDS011;31738;50.188;8.524;2022-09-16T07:03:21;5.75;;;1.92;;
46006;SDS011;31738;50.188;8.524;2022-09-16T07:06:01;3.72;;;1.50;;
46006;SDS011;31738;50.188;8.524;2022-09-16T07:08:33;5.38;;;1.45;;
46006;SDS011;31738;50.188;8.524;2022-09-16T07:11:06;6.63;;;1.95;;
46006;SDS011;31738;50.188;8.524;2022-09-16T07:13:42;5.60;;;1.80;;
46006;SDS011;31738;50.188;8.524;2022-09-16T07:16:09;6.32;;;1.45;;
46006;SDS011;31738;50.188;8.524;2022-09-16T07:18:39;5.20;;;1.40;;
46006;SDS011;31738;50.188;8.524;2022-09-16T07:21:06;3.78;;;1.30;;
46006;SDS011;31738;50.188;8.524;2022-09-16T07:23:42;7.88;;;1.67;;
46006;SDS011;31738;50.188;8.524;2022-09-16T07:26:09;4.93;;;1.25;;
46006;SDS011;31738;50.188;8.524;2022-09-16T07:28:40;4.28;;;1.33;;
46006;SDS011;31738;50.188;8.524;2022-09-16T07:31:08;3.70;;;1.35;;
46006;SDS011;31738;50.188;8.524;2022-09-16T07:33:36;6.78;;;1.52;;
46006;SDS011;31738;50.188;8.524;2022-09-16T07:36:03;6.45;;;1.77;;
46006;SDS011;31738;50.188;8.524;2022-09-16T07:38:30;4.03;;;1.42;;
46006;SDS011;31738;50.188;8.524;2022-09-16T07:41:02;2.50;;;1.20;;
46006;SDS011;31738;50.188;8.524;2022-09-16T07:43:35;8.60;;;1.60;;
46006;SDS011;31738;50.188;8.524;2022-09-16T07:46:01;11.05;;;2.03;;
46006;SDS011;31738;50.188;8.524;2022-09-16T07:48:27;3.22;;;1.20;;
46006;SDS011;31738;50.188;8.524;2022-09-16T07:50:58;4.20;;;1.38;;
46006;SDS011;31738;50.188;8.524;2022-09-16T07:53:26;7.65;;;1.42;;
46006;SDS011;31738;50.188;8.524;2022-09-16T07:55:54;5.65;;;1.50;;
46006;SDS011;31738;50.188;8.524;2022-09-16T07:58:39;5.70;;;1.85;;
46006;SDS011;31738;50.188;8.524;2022-09-16T08:01:06;3.45;;;1.73;;
46006;SDS011;31738;50.188;8.524;2022-09-16T08:03:37;2.75;;;1.30;;
46006;SDS011;31738;50.188;8.524;2022-09-16T08:06:06;5.65;;;1.45;;
46006;SDS011;31738;50.188;8.524;2022-09-16T08:08:33;3.42;;;0.90;;
46006;SDS011;31738;50.188;8.524;2022-09-16T08:10:58;5.55;;;1.20;;
46006;SDS011;31738;50.188;8.524;2022-09-16T08:13:26;8.20;;;1.20;;
46006;SDS011;31738;50.188;8.524;2022-09-16T08:16:01;7.13;;;1.67;;
46006;SDS011;31738;50.188;8.524;2022-09-16T08:18:30;8.07;;;1.30;;
46006;SDS011;31738;50.188;8.524;2022-09-16T08:20:56;5.95;;;1.10;;
46006;SDS011;31738;50.188;8.524;2022-09-16T08:23:22;3.22;;;1.15;;
46006;SDS011;31738;50.188;8.524;2022-09-16T08:25:54;7.72;;;0.90;;
46006;SDS011;31738;50.188;8.524;2022-09-16T08:28:23;6.70;;;1.10;;
46006;SDS011;31738;50.188;8.524;2022-09-16T08:30:50;6.75;;;1.00;;
46006;SDS011;31738;50.188;8.524;2022-09-16T08:33:15;5.95;;;1.38;;
46006;SDS011;31738;50.188;8.524;2022-09-16T08:35:45;9.07;;;1.45;;
46006;SDS011;31738;50.188;8.524;2022-09-16T08:38:11;3.95;;;0.80;;
46006;SDS011;31738;50.188;8.524;2022-09-16T08:40:42;8.52;;;1.08;;
46006;SDS011;31738;50.188;8.524;2022-09-16T08:43:22;6.93;;;1.27;;
46006;SDS011;31738;50.188;8.524;2022-09-16T08:46:24;6.72;;;1.35;;
46006;SDS011;31738;50.188;8.524;2022-09-16T08:49:16;5.72;;;1.10;;
46006;SDS011;31738;50.188;8.524;2022-09-16T08:51:43;8.20;;;0.82;;
46006;SDS011;31738;50.188;8.524;2022-09-16T08:54:22;3.80;;;1.05;;
46006;SDS011;31738;50.188;8.524;2022-09-16T08:56:57;4.57;;;0.90;;
46006;SDS011;31738;50.188;8.524;2022-09-16T08:59:26;3.72;;;0.82;;
46006;SDS011;31738;50.188;8.524;2022-09-16T09:04:43;6.07;;;1.13;;
46006;SDS011;31738;50.188;8.524;2022-09-16T09:07:16;3.33;;;0.80;;
46006;SDS011;31738;50.188;8.524;2022-09-16T09:09:49;5.28;;;1.10;;
46006;SDS011;31738;50.188;8.524;2022-09-16T09:12:31;3.30;;;0.95;;
46006;SDS011;31738;50.188;8.524;2022-09-16T09:20:46;4.97;;;0.93;;
46006;SDS011;31738;50.188;8.524;2022-09-16T09:23:52;7.82;;;1.10;;
46006;SDS011;31738;50.188;8.524;2022-09-16T09:29:01;3.47;;;1.08;;
46006;SDS011;31738;50.188;8.524;2022-09-16T09:34:48;3.95;;;0.85;;
46006;SDS011;31738;50.188;8.524;2022-09-16T09:37:25;2.85;;;1.00;;
46006;SDS011;31738;50.188;8.524;2022-09-16T09:47:51;4.55;;;0.75;;
46006;SDS011;31738;50.188;8.524;2022-09-16T09:50:23;6.00;;;0.90;;
46006;SDS011;31738;50.188;8.524;2022-09-16T09:53:00;3.75;;;0.60;;
46006;SDS011;31738;50.188;8.524;2022-09-16T09:55:37;3.20;;;0.50;;
46006;SDS011;31738;50.188;8.524;2022-09-16T10:00:30;2.97;;;0.77;;
46006;SDS011;31738;50.188;8.524;2022-09-16T10:05:51;1.77;;;0.60;;
46006;SDS011;31738;50.188;8.524;2022-09-16T10:10:49;3.67;;;0.80;;
46006;SDS011;31738;50.188;8.524;2022-09-16T10:13:18;2.25;;;0.50;;
46006;SDS011;31738;50.188;8.524;2022-09-16T10:15:45;4.53;;;1.00;;
46006;SDS011;31738;50.188;8.524;2022-09-16T10:18:12;1.75;;;0.60;;
46006;SDS011;31738;50.188;8.524;2022-09-16T10:20:55;4.20;;;0.80;;
46006;SDS011;31738;50.188;8.524;2022-09-16T10:23:37;2.85;;;0.65;;
46006;SDS011;31738;50.188;8.524;2022-09-16T10:26:17;2.28;;;0.60;;
46006;SDS011;31738;50.188;8.524;2022-09-16T10:28:56;2.70;;;0.50;;
46006;SDS011;31738;50.188;8.524;2022-09-16T10:31:23;2.65;;;0.73;;
46006;SDS011;31738;50.188;8.524;2022-09-16T10:33:50;3.17;;;0.80;;
46006;SDS011;31738;50.188;8.524;2022-09-16T10:36:20;3.90;;;0.93;;
46006;SDS011;31738;50.188;8.524;2022-09-16T10:38:56;3.90;;;0.85;;
46006;SDS011;31738;50.188;8.524;2022-09-16T10:41:27;3.25;;;0.80;;
46006;SDS011;31738;50.188;8.524;2022-09-16T10:44:01;6.47;;;0.88;;
46006;SDS011;31738;50.188;8.524;2022-09-16T10:46:30;3.25;;;0.70;;
46006;SDS011;31738;50.188;8.524;2022-09-16T10:48:58;3.40;;;1.10;;
46006;SDS011;31738;50.188;8.524;2022-09-16T10:51:27;2.38;;;0.93;;
46006;SDS011;31738;50.188;8.524;2022-09-16T10:53:58;4.93;;;0.82;;
46006;SDS011;31738;50.188;8.524;2022-09-16T10:56:27;2.33;;;0.85;;
46006;SDS011;31738;50.188;8.524;2022-09-16T11:01:41;4.05;;;1.08;;
46006;SDS011;31738;50.188;8.524;2022-09-16T11:04:29;4.18;;;1.00;;
46006;SDS011;31738;50.188;8.524;2022-09-16T11:07:06;1.55;;;0.80;;
46006;SDS011;31738;50.188;8.524;2022-09-16T11:12:40;3.20;;;0.80;;
46006;SDS011;31738;50.188;8.524;2022-09-16T11:15:23;3.92;;;0.90;;
46006;SDS011;31738;50.188;8.524;2022-09-16T11:18:50;3.78;;;0.82;;
46006;SDS011;31738;50.188;8.524;2022-09-16T11:23:40;1.92;;;0.70;;
46006;SDS011;31738;50.188;8.524;2022-09-16T11:26:29;3.05;;;0.90;;
46006;SDS011;31738;50.188;8.524;2022-09-16T11:34:48;3.15;;;0.70;;
46006;SDS011;31738;50.188;8.524;2022-09-16T11:37:23;1.92;;;0.88;;
46006;SDS011;31738;50.188;8.524;2022-09-16T11:50:49;5.28;;;1.10;;
46006;SDS011;31738;50.188;8.524;2022-09-16T11:56:03;2.85;;;1.00;;
46006;SDS011;31738;50.188;8.524;2022-09-16T12:04:26;4.85;;;1.17;;
46006;SDS011;31738;50.188;8.524;2022-09-16T12:12:11;3.88;;;1.38;;
46006;SDS011;31738;50.188;8.524;2022-09-16T12:14:44;3.83;;;1.48;;
46006;SDS011;31738;50.188;8.524;2022-09-16T12:17:16;2.53;;;1.17;;
46006;SDS011;31738;50.188;8.524;2022-09-16T12:19:50;1.35;;;0.88;;
46006;SDS011;31738;50.188;8.524;2022-09-16T12:22:28;3.25;;;0.95;;
46006;SDS011;31738;50.188;8.524;2022-09-16T12:25:04;2.05;;;0.95;;
46006;SDS011;31738;50.188;8.524;2022-09-16T12:27:38;1.35;;;1.05;;
46006;SDS011;31738;50.188;8.524;2022-09-16T12:35:32;1.55;;;1.40;;
46006;SDS011;31738;50.188;8.524;2022-09-16T12:38:02;6.07;;;2.22;;
46006;SDS011;31738;50.188;8.524;2022-09-16T12:40:41;4.38;;;1.60;;
46006;SDS011;31738;50.188;8.524;2022-09-16T12:43:21;3.90;;;1.50;;
46006;SDS011;31738;50.188;8.524;2022-09-16T12:59:39;2.50;;;0.80;;
46006;SDS011;31738;50.188;8.524;2022-09-16T13:02:10;3.33;;;0.70;;
46006;SDS011;31738;50.188;8.524;2022-09-16T13:04:44;1.73;;;0.55;;
46006;SDS011;31738;50.188;8.524;2022-09-16T13:07:31;2.85;;;0.80;;
46006;SDS011;31738;50.188;8.524;2022-09-16T13:10:03;2.83;;;0.57;;
46006;SDS011;31738;50.188;8.524;2022-09-16T13:12:32;2.35;;;0.70;;
46006;SDS011;31738;50.188;8.524;2022-09-16T13:14:59;2.47;;;0.40;;
46006;SDS011;31738;50.188;8.524;2022-09-16T13:17:29;4.85;;;0.65;;
46006;SDS011;31738;50.188;8.524;2022-09-16T13:25:15;2.25;;;0.50;;
46006;SDS011;31738;50.188;8.524;2022-09-16T13:30:29;2.47;;;0.65;;
46006;SDS011;31738;50.188;8.524;2022-09-16T13:37:57;3.67;;;0.80;;
46006;SDS011;31738;50.188;8.524;2022-09-16T13:40:26;2.85;;;0.60;;
46006;SDS011;31738;50.188;8.524;2022-09-16T13:48:10;1.23;;;0.70;;
46006;SDS011;31738;50.188;8.524;2022-09-16T13:50:43;1.77;;;0.60;;
46006;SDS011;31738;50.188;8.524;2022-09-16T13:56:21;2.05;;;0.50;;
46006;SDS011;31738;50.188;8.524;2022-09-16T13:59:11;1.50;;;0.40;;
46006;SDS011;31738;50.188;8.524;2022-09-16T14:10:22;1.65;;;0.57;;
46006;SDS011;31738;50.188;8.524;2022-09-16T14:13:18;0.50;;;0.30;;
46006;SDS011;31738;50.188;8.524;2022-09-16T14:15:45;1.08;;;0.40;;
46006;SDS011;31738;50.188;8.524;2022-09-16T14:18:15;1.40;;;0.40;;
46006;SDS011;31738;50.188;8.524;2022-09-16T14:23:45;1.75;;;0.47;;
46006;SDS011;31738;50.188;8.524;2022-09-16T14:28:40;1.60;;;0.55;;
46006;SDS011;31738;50.188;8.524;2022-09-16T14:31:07;1.98;;;0.30;;
46006;SDS011;31738;50.188;8.524;2022-09-16T14:33:46;0.77;;;0.38;;
46006;SDS011;31738;50.188;8.524;2022-09-16T14:36:15;1.48;;;0.55;;
46006;SDS011;31738;50.188;8.524;2022-09-16T14:38:45;0.77;;;0.60;;
46006;SDS011;31738;50.188;8.524;2022-09-16T14:41:36;4.43;;;0.57;;
46006;SDS011;31738;50.188;8.524;2022-09-16T14:44:09;2.78;;;0.40;;
46006;SDS011;31738;50.188;8.524;2022-09-16T14:46:44;2.17;;;0.32;;
46006;SDS011;31738;50.188;8.524;2022-09-16T14:49:14;2.30;;;0.52;;
46006;SDS011;31738;50.188;8.524;2022-09-16T14:51:57;2.72;;;0.57;;
46006;SDS011;31738;50.188;8.524;2022-09-16T14:54:24;1.10;;;0.35;;
46006;SDS011;31738;50.188;8.524;2022-09-16T14:56:58;0.85;;;0.28;;
46006;SDS011;31738;50.188;8.524;2022-09-16T14:59:32;1.15;;;0.40;;
46006;SDS011;31738;50.188;8.524;2022-09-16T15:02:05;2.97;;;0.50;;
46006;SDS011;31738;50.188;8.524;2022-09-16T15:04:37;1.85;;;0.75;;
46006;SDS011;31738;50.188;8.524;2022-09-16T15:07:06;1.77;;;0.43;;
46006;SDS011;31738;50.188;8.524;2022-09-16T15:09:49;1.40;;;0.50;;
46006;SDS011;31738;50.188;8.524;2022-09-16T15:12:23;1.73;;;0.73;;
46006;SDS011;31738;50.188;8.524;2022-09-16T15:14:52;2.38;;;0.40;;
46006;SDS011;31738;50.188;8.524;2022-09-16T15:17:21;1.25;;;0.30;;
46006;SDS011;31738;50.188;8.524;2022-09-16T15:19:56;0.43;;;0.30;;
46006;SDS011;31738;50.188;8.524;2022-09-16T15:22:23;2.30;;;0.40;;
46006;SDS011;31738;50.188;8.524;2022-09-16T15:24:51;4.72;;;0.40;;
46006;SDS011;31738;50.188;8.524;2022-09-16T15:27:29;0.77;;;0.20;;
46006;SDS011;31738;50.188;8.524;2022-09-16T15:29:58;2.70;;;0.40;;
46006;SDS011;31738;50.188;8.524;2022-09-16T15:32:26;3.35;;;0.50;;
46006;SDS011;31738;50.188;8.524;2022-09-16T15:37:43;1.42;;;0.40;;
46006;SDS011;31738;50.188;8.524;2022-09-16T15:40:09;1.48;;;0.30;;
46006;SDS011;31738;50.188;8.524;2022-09-16T15:42:45;1.33;;;0.38;;
46006;SDS011;31738;50.188;8.524;2022-09-16T15:45:13;1.40;;;0.50;;
46006;SDS011;31738;50.188;8.524;2022-09-16T15:48:16;1.90;;;0.50;;
46006;SDS011;31738;50.188;8.524;2022-09-16T15:50:43;1.60;;;0.40;;
46006;SDS011;31738;50.188;8.524;2022-09-16T15:53:56;1.25;;;0.45;;
46006;SDS011;31738;50.188;8.524;2022-09-16T15:56:20;1.15;;;0.40;;
46006;SDS011;31738;50.188;8.524;2022-09-16T15:58:56;2.00;;;0.40;;
46006;SDS011;31738;50.188;8.524;2022-09-16T16:01:43;3.03;;;0.30;;
46006;SDS011;31738;50.188;8.524;2022-09-16T16:04:12;0.88;;;0.20;;
46006;SDS011;31738;50.188;8.524;2022-09-16T16:11:51;1.50;;;0.20;;
46006;SDS011;31738;50.188;8.524;2022-09-16T16:14:17;1.08;;;0.30;;
46006;SDS011;31738;50.188;8.524;2022-09-16T16:16:43;3.28;;;0.40;;
46006;SDS011;31738;50.188;8.524;2022-09-16T16:19:08;2.38;;;0.28;;
46006;SDS011;31738;50.188;8.524;2022-09-16T16:21:37;0.30;;;0.20;;
46006;SDS011;31738;50.188;8.524;2022-09-16T16:24:02;0.60;;;0.40;;
46006;SDS011;31738;50.188;8.524;2022-09-16T16:26:28;0.50;;;0.30;;
46006;SDS011;31738;50.188;8.524;2022-09-16T16:28:54;2.90;;;0.50;;
46006;SDS011;31738;50.188;8.524;2022-09-16T16:31:19;0.43;;;0.35;;
46006;SDS011;31738;50.188;8.524;2022-09-16T16:33:45;1.15;;;0.32;;
46006;SDS011;31738;50.188;8.524;2022-09-16T16:36:12;0.32;;;0.20;;
46006;SDS011;31738;50.188;8.524;2022-09-16T16:38:39;1.55;;;0.30;;
46006;SDS011;31738;50.188;8.524;2022-09-16T16:41:05;0.30;;;0.13;;
46006;SDS011;31738;50.188;8.524;2022-09-16T16:43:32;1.10;;;0.32;;
46006;SDS011;31738;50.188;8.524;2022-09-16T16:45:57;1.60;;;0.20;;
46006;SDS011;31738;50.188;8.524;2022-09-16T16:48:26;3.78;;;0.40;;
46006;SDS011;31738;50.188;8.524;2022-09-16T16:50:53;2.90;;;0.20;;
46006;SDS011;31738;50.188;8.524;2022-09-16T16:53:20;1.30;;;0.30;;
46006;SDS011;31738;50.188;8.524;2022-09-16T16:55:45;0.90;;;0.30;;
46006;SDS011;31738;50.188;8.524;2022-09-16T16:58:11;0.68;;;0.30;;
46006;SDS011;31738;50.188;8.524;2022-09-16T17:00:36;1.02;;;0.20;;
46006;SDS011;31738;50.188;8.524;2022-09-16T17:03:04;1.73;;;0.45;;
46006;SDS011;31738;50.188;8.524;2022-09-16T17:05:30;1.40;;;0.30;;
46006;SDS011;31738;50.188;8.524;2022-09-16T17:07:55;2.13;;;0.38;;
46006;SDS011;31738;50.188;8.524;2022-09-16T17:10:21;1.23;;;0.30;;
46006;SDS011;31738;50.188;8.524;2022-09-16T17:12:47;0.60;;;0.47;;
46006;SDS011;31738;50.188;8.524;2022-09-16T17:15:12;1.65;;;0.40;;
46006;SDS011;31738;50.188;8.524;2022-09-16T17:17:38;1.27;;;0.40;;
46006;SDS011;31738;50.188;8.524;2022-09-16T17:20:05;1.52;;;0.30;;
46006;SDS011;31738;50.188;8.524;2022-09-16T17:22:30;0.65;;;0.50;;
46006;SDS011;31738;50.188;8.524;2022-09-16T17:24:56;1.55;;;0.32;;
46006;SDS011;31738;50.188;8.524;2022-09-16T17:27:21;2.08;;;0.30;;
46006;SDS011;31738;50.188;8.524;2022-09-16T17:29:49;2.47;;;0.40;;
46006;SDS011;31738;50.188;8.524;2022-09-16T17:32:14;1.25;;;0.38;;
46006;SDS011;31738;50.188;8.524;2022-09-16T17:34:40;3.22;;;0.60;;
46006;SDS011;31738;50.188;8.524;2022-09-16T17:37:05;2.67;;;0.30;;
46006;SDS011;31738;50.188;8.524;2022-09-16T17:39:35;1.42;;;0.32;;
46006;SDS011;31738;50.188;8.524;2022-09-16T17:42:02;1.30;;;0.52;;
46006;SDS011;31738;50.188;8.524;2022-09-16T17:44:28;2.22;;;0.47;;
46006;SDS011;31738;50.188;8.524;2022-09-16T17:46:53;1.00;;;0.45;;
46006;SDS011;31738;50.188;8.524;2022-09-16T17:49:19;1.65;;;0.40;;
46006;SDS011;31738;50.188;8.524;2022-09-16T17:51:46;2.17;;;0.45;;
46006;SDS011;31738;50.188;8.524;2022-09-16T17:54:12;2.45;;;0.73;;
46006;SDS011;31738;50.188;8.524;2022-09-16T17:56:38;1.15;;;0.50;;
46006;SDS011;31738;50.188;8.524;2022-09-16T17:59:09;3.17;;;0.60;;
46006;SDS011;31738;50.188;8.524;2022-09-16T18:01:36;1.35;;;0.55;;
46006;SDS011;31738;50.188;8.524;2022-09-16T18:04:02;1.00;;;0.40;;
46006;SDS011;31738;50.188;8.524;2022-09-16T18:06:31;1.73;;;0.40;;
46006;SDS011;31738;50.188;8.524;2022-09-16T18:09:00;2.55;;;0.40;;